Time;durP1;ratioP1;P1;durP2;ratioP2;P2;SDS_P1;SDS_P2;PMS_P1;PMS_P2;Temp;Humidity;BMP_temperature;BMP_pressure;BME280_temperature;BME280_humidity;BME280_pressure;Samples;Min_cycle;Max_cycle;Signal;HPM_P1;HPM_P2
2022/11/20 00:00:51;;;;;;;7.00;5.88;;;4.70;70.20;;;;;;5032901;28;20062;-57
2022/11/20 00:03:17;;;;;;;6.95;5.28;;;4.70;70.20;;;;;;5032724;28;20029;-56
2022/11/20 00:05:43;;;;;;;6.53;5.50;;;4.70;70.40;;;;;;5030163;28;20108;-55
2022/11/20 00:08:09;;;;;;;7.25;5.85;;;4.70;70.20;;;;;;5032696;28;20017;-55
2022/11/20 00:10:37;;;;;;;7.95;6.10;;;4.70;70.00;;;;;;5032757;28;20389;-57
2022/11/20 00:13:03;;;;;;;8.48;6.38;;;4.60;69.90;;;;;;5031337;28;20380;-57
2022/11/20 00:15:29;;;;;;;7.97;6.55;;;4.60;69.90;;;;;;5032129;28;20040;-56
2022/11/20 00:17:54;;;;;;;9.13;6.68;;;4.60;69.90;;;;;;5033167;28;20026;-56
2022/11/20 00:20:20;;;;;;;7.63;5.80;;;4.60;69.90;;;;;;5032875;28;20358;-57
2022/11/20 00:22:46;;;;;;;8.13;6.03;;;4.50;70.00;;;;;;5031821;28;20060;-57
2022/11/20 00:25:11;;;;;;;8.13;6.38;;;4.50;70.10;;;;;;5031914;28;20033;-57
2022/11/20 00:27:37;;;;;;;8.30;6.55;;;4.50;70.10;;;;;;5033048;28;20033;-57
2022/11/20 00:30:04;;;;;;;8.13;6.30;;;4.50;69.80;;;;;;5032522;28;20501;-57
2022/11/20 00:32:30;;;;;;;7.28;5.78;;;4.50;69.80;;;;;;5032612;28;20030;-56
2022/11/20 00:34:56;;;;;;;7.30;6.07;;;4.50;69.60;;;;;;5032782;28;20084;-56
2022/11/20 00:37:22;;;;;;;6.57;5.65;;;4.50;69.50;;;;;;5032834;28;20025;-56
2022/11/20 00:39:47;;;;;;;7.28;5.53;;;4.50;69.60;;;;;;5032577;28;20021;-55
2022/11/20 00:42:13;;;;;;;7.85;6.05;;;4.50;69.80;;;;;;5026687;28;20030;-57
2022/11/20 00:44:39;;;;;;;6.82;5.15;;;4.60;69.80;;;;;;5032972;28;20460;-55
2022/11/20 00:47:05;;;;;;;6.47;5.10;;;4.60;69.80;;;;;;5025591;28;20472;-56
2022/11/20 00:49:30;;;;;;;6.57;4.95;;;4.60;69.90;;;;;;5032781;28;20584;-56
2022/11/20 00:51:56;;;;;;;5.13;4.10;;;4.70;69.90;;;;;;5032242;28;20030;-56
2022/11/20 00:54:21;;;;;;;5.13;4.18;;;4.80;70.00;;;;;;5032317;28;20041;-57
2022/11/20 00:56:47;;;;;;;3.88;3.33;;;4.80;69.80;;;;;;5032822;28;20038;-56
2022/11/20 00:59:13;;;;;;;3.83;3.33;;;5.00;69.90;;;;;;5032780;28;20041;-58
2022/11/20 01:01:38;;;;;;;5.57;4.47;;;5.00;69.80;;;;;;5032218;28;20036;-55
2022/11/20 01:04:04;;;;;;;7.72;5.78;;;5.10;69.60;;;;;;5032643;28;20033;-57
2022/11/20 01:06:35;;;;;;;7.30;4.75;;;5.20;69.40;;;;;;5032518;28;20036;-56
2022/11/20 01:09:11;;;;;;;6.30;5.00;;;5.30;69.10;;;;;;5031797;28;20380;-56
2022/11/20 01:11:40;;;;;;;6.53;5.13;;;5.30;69.00;;;;;;5035177;28;20029;-57
2022/11/20 01:14:13;;;;;;;7.80;5.40;;;5.30;68.90;;;;;;5036208;28;20032;-56
2022/11/20 01:16:41;;;;;;;7.07;5.45;;;5.30;68.80;;;;;;5036261;28;20030;-55
2022/11/20 01:19:11;;;;;;;8.05;6.18;;;5.30;68.80;;;;;;5036233;28;20029;-55
2022/11/20 01:21:39;;;;;;;5.95;4.78;;;5.30;68.80;;;;;;5036012;28;20029;-56
2022/11/20 01:24:07;;;;;;;5.43;4.25;;;5.30;68.80;;;;;;5035666;28;20496;-57
2022/11/20 01:26:37;;;;;;;6.35;4.85;;;5.30;68.80;;;;;;5036342;28;20034;-56
2022/11/20 01:29:04;;;;;;;7.95;6.50;;;5.40;69.10;;;;;;5035553;28;20021;-56
2022/11/20 01:31:35;;;;;;;8.98;7.15;;;5.40;68.90;;;;;;5036161;28;20029;-57
2022/11/20 01:34:04;;;;;;;8.73;6.20;;;5.40;68.80;;;;;;5034996;28;20017;-55
2022/11/20 01:36:32;;;;;;;8.07;6.28;;;5.50;69.10;;;;;;5035838;28;20037;-57
2022/11/20 01:39:00;;;;;;;14.05;9.07;;;5.50;69.20;;;;;;5035305;28;20031;-57
2022/11/20 01:44:17;;;;;;;16.92;9.70;;;5.60;68.80;;;;;;5035239;28;20042;-57
2022/11/20 01:46:58;;;;;;;10.55;7.80;;;5.50;68.80;;;;;;5034680;28;20113;-56
2022/11/20 01:49:37;;;;;;;10.97;7.70;;;5.50;69.10;;;;;;5036175;28;20048;-56
2022/11/20 01:52:19;;;;;;;13.40;9.55;;;5.50;69.10;;;;;;5035261;28;20029;-57
2022/11/20 01:55:00;;;;;;;12.73;9.68;;;5.50;69.00;;;;;;5022640;28;20040;-56
2022/11/20 01:57:29;;;;;;;13.68;10.23;;;5.50;68.90;;;;;;5035517;28;20042;-56
2022/11/20 02:00:10;;;;;;;15.77;11.30;;;5.50;68.90;;;;;;5034929;28;20017;-56
2022/11/20 02:02:37;;;;;;;19.65;13.25;;;5.50;69.00;;;;;;5035317;28;20470;-56
2022/11/20 02:05:29;;;;;;;14.18;9.77;;;5.40;69.00;;;;;;5034745;28;20499;-57
2022/11/20 02:07:57;;;;;;;10.60;7.47;;;5.40;69.10;;;;;;5034009;28;20038;-57
2022/11/20 02:10:23;;;;;;;10.93;7.53;;;5.40;69.40;;;;;;5033863;28;20021;-57
2022/11/20 02:15:33;;;;;;;9.25;7.13;;;5.50;69.40;;;;;;5035169;28;20032;-56
2022/11/20 02:17:59;;;;;;;12.93;8.30;;;5.60;69.20;;;;;;5031156;28;20032;-56
2022/11/20 02:20:25;;;;;;;10.18;7.70;;;5.70;69.10;;;;;;5034908;28;20029;-56
2022/11/20 02:22:58;;;;;;;8.05;6.25;;;5.70;69.10;;;;;;5033647;28;20068;-57
2022/11/20 02:25:26;;;;;;;12.15;10.02;;;5.70;69.10;;;;;;5027197;28;20088;-55
2022/11/20 02:27:51;;;;;;;11.38;9.05;;;5.70;69.00;;;;;;5033343;28;20439;-57
2022/11/20 02:30:17;;;;;;;11.77;8.98;;;5.70;68.90;;;;;;5035119;28;20025;-54
2022/11/20 02:32:44;;;;;;;11.57;7.80;;;5.70;69.10;;;;;;5034892;28;20071;-57
2022/11/20 02:35:19;;;;;;;14.18;11.15;;;5.70;69.00;;;;;;5034812;28;20052;-55
2022/11/20 02:37:47;;;;;;;13.05;10.10;;;5.80;68.80;;;;;;5023037;28;20026;-57
2022/11/20 02:40:13;;;;;;;11.25;9.02;;;5.80;68.80;;;;;;5030902;28;20022;-56
2022/11/20 02:42:38;;;;;;;13.73;10.35;;;5.80;68.90;;;;;;5029707;28;20030;-57
2022/11/20 02:45:05;;;;;;;10.13;7.20;;;5.80;68.80;;;;;;5034433;28;20056;-56
2022/11/20 02:47:31;;;;;;;13.93;10.85;;;5.80;68.90;;;;;;5034433;28;20430;-57
2022/11/20 02:49:57;;;;;;;16.10;12.13;;;5.80;68.70;;;;;;5034821;28;20030;-57
2022/11/20 02:52:23;;;;;;;11.48;8.65;;;5.80;68.50;;;;;;5034772;28;20025;-55
2022/11/20 02:54:48;;;;;;;10.23;7.88;;;5.80;68.60;;;;;;5034356;28;20033;-54
2022/11/20 02:57:14;;;;;;;9.65;7.10;;;5.80;68.70;;;;;;5033852;28;20082;-57
2022/11/20 02:59:40;;;;;;;9.85;7.53;;;5.80;68.80;;;;;;5033502;28;20060;-57
2022/11/20 03:02:05;;;;;;;11.85;9.05;;;5.90;68.70;;;;;;5034046;28;20036;-56
2022/11/20 03:04:31;;;;;;;11.13;7.28;;;5.90;68.50;;;;;;5034193;28;20030;-55
2022/11/20 03:06:57;;;;;;;12.23;8.75;;;6.00;68.60;;;;;;5033692;28;20079;-56
2022/11/20 03:09:22;;;;;;;8.80;6.88;;;5.90;68.50;;;;;;5033970;28;20029;-55
2022/11/20 03:11:48;;;;;;;8.50;6.05;;;5.90;68.50;;;;;;5025662;28;20017;-57
2022/11/20 03:14:14;;;;;;;8.95;6.70;;;6.00;68.60;;;;;;5033947;28;20084;-57
2022/11/20 03:16:40;;;;;;;11.30;7.82;;;6.00;68.40;;;;;;5034144;28;20486;-56
2022/11/20 03:19:06;;;;;;;9.93;7.85;;;6.00;68.30;;;;;;5033709;28;20037;-56
2022/11/20 03:21:34;;;;;;;8.27;6.20;;;6.00;68.90;;;;;;5034196;28;20083;-56
2022/11/20 03:23:59;;;;;;;8.48;6.40;;;5.90;68.40;;;;;;5033466;28;20051;-56
2022/11/20 03:26:26;;;;;;;7.82;5.95;;;5.90;68.50;;;;;;5033615;28;20096;-57
2022/11/20 03:28:54;;;;;;;7.80;5.82;;;5.90;68.60;;;;;;5033777;28;20453;-57
2022/11/20 03:31:26;;;;;;;8.27;6.15;;;5.90;68.60;;;;;;5033802;28;20021;-57
2022/11/20 03:33:52;;;;;;;5.55;4.70;;;5.90;68.60;;;;;;5032995;28;20022;-56
2022/11/20 03:36:19;;;;;;;6.95;5.18;;;6.00;68.60;;;;;;5033459;28;20037;-55
2022/11/20 03:38:44;;;;;;;9.60;7.18;;;6.00;68.70;;;;;;5033325;28;20512;-57
2022/11/20 03:41:22;;;;;;;8.48;6.75;;;6.00;68.70;;;;;;5032856;28;20021;-57
2022/11/20 03:43:52;;;;;;;6.93;5.38;;;6.00;68.40;;;;;;5033183;28;20036;-57
2022/11/20 03:46:18;;;;;;;8.48;6.63;;;6.00;68.30;;;;;;5032339;28;20021;-57
2022/11/20 03:48:44;;;;;;;9.55;7.28;;;6.00;68.10;;;;;;5033301;28;20469;-56
2022/11/20 03:51:15;;;;;;;7.13;6.07;;;6.00;67.90;;;;;;5033598;28;20408;-57
2022/11/20 03:53:42;;;;;;;10.40;7.82;;;6.00;68.20;;;;;;5033144;28;20036;-57
2022/11/20 03:56:09;;;;;;;9.73;7.72;;;5.90;68.10;;;;;;5033005;28;20113;-56
2022/11/20 03:58:41;;;;;;;11.30;8.05;;;5.90;67.90;;;;;;5033178;28;20040;-56
2022/11/20 04:01:08;;;;;;;9.73;7.40;;;5.90;67.80;;;;;;5032995;28;20029;-56
2022/11/20 04:03:36;;;;;;;7.40;5.53;;;5.80;67.80;;;;;;5033221;28;20380;-57
2022/11/20 04:06:23;;;;;;;7.63;5.82;;;5.80;68.10;;;;;;5032842;28;20057;-57
2022/11/20 04:08:49;;;;;;;6.80;5.22;;;5.80;68.10;;;;;;5032024;28;20060;-57
2022/11/20 04:11:23;;;;;;;8.63;6.30;;;5.90;68.20;;;;;;5026720;28;20071;-57
2022/11/20 04:13:52;;;;;;;10.60;7.45;;;5.90;68.20;;;;;;5033465;28;20444;-57
2022/11/20 04:16:19;;;;;;;10.90;8.43;;;5.90;68.00;;;;;;5033019;28;20540;-57
2022/11/20 04:18:45;;;;;;;12.07;8.40;;;5.90;67.90;;;;;;5033548;28;20061;-57
2022/11/20 04:21:11;;;;;;;11.32;8.43;;;5.90;67.90;;;;;;5032707;28;20052;-56
2022/11/20 04:23:37;;;;;;;12.60;9.20;;;5.80;68.00;;;;;;5032861;28;20049;-57
2022/11/20 04:26:06;;;;;;;11.68;8.73;;;5.80;68.10;;;;;;5032749;28;20018;-56
2022/11/20 04:28:31;;;;;;;11.10;8.63;;;5.70;68.10;;;;;;5032232;28;20603;-56
2022/11/20 04:31:18;;;;;;;13.63;9.27;;;5.70;68.30;;;;;;5029510;28;20021;-56
2022/11/20 04:33:43;;;;;;;11.75;9.20;;;5.60;68.30;;;;;;5028476;28;20021;-56
2022/11/20 04:36:09;;;;;;;12.15;9.52;;;5.60;68.60;;;;;;5032756;28;20443;-56
2022/11/20 04:38:35;;;;;;;13.52;9.65;;;5.50;68.70;;;;;;5032703;28;20566;-55
2022/11/20 04:41:02;;;;;;;12.32;9.40;;;5.50;68.70;;;;;;5029347;28;20025;-56
2022/11/20 04:43:29;;;;;;;10.90;8.15;;;5.50;68.80;;;;;;5027995;28;20044;-57
2022/11/20 04:45:56;;;;;;;12.35;9.07;;;5.50;69.00;;;;;;5036250;28;20057;-56
2022/11/20 04:48:22;;;;;;;11.30;8.70;;;5.50;69.20;;;;;;5037126;28;20413;-56
2022/11/20 04:50:48;;;;;;;10.63;7.70;;;5.50;69.30;;;;;;5035153;28;20377;-56
2022/11/20 04:53:14;;;;;;;8.35;6.60;;;5.40;69.20;;;;;;5036248;28;20025;-56
2022/11/20 04:55:39;;;;;;;9.18;7.85;;;5.40;69.50;;;;;;5036536;28;20033;-56
2022/11/20 04:58:05;;;;;;;9.63;6.50;;;5.50;69.50;;;;;;5035879;28;20114;-56
2022/11/20 05:00:31;;;;;;;6.97;5.78;;;5.50;69.60;;;;;;5036811;28;20030;-57
2022/11/20 05:02:57;;;;;;;8.82;5.95;;;5.60;69.50;;;;;;5036098;28;20061;-57
2022/11/20 05:05:22;;;;;;;8.20;6.88;;;5.60;69.50;;;;;;5036267;28;20018;-57
2022/11/20 05:07:48;;;;;;;9.30;8.20;;;5.70;70.10;;;;;;5035976;28;20030;-57
2022/11/20 05:10:14;;;;;;;8.25;6.68;;;5.70;69.20;;;;;;5027532;28;20032;-56
2022/11/20 05:12:39;;;;;;;9.13;6.78;;;5.70;69.20;;;;;;5032115;28;20021;-55
2022/11/20 05:15:05;;;;;;;7.82;6.35;;;5.80;69.30;;;;;;5036653;28;20021;-56
2022/11/20 05:17:31;;;;;;;8.75;6.80;;;5.80;69.20;;;;;;5035705;28;20476;-56
2022/11/20 05:19:56;;;;;;;8.73;6.82;;;5.80;69.20;;;;;;5036673;28;20037;-55
2022/11/20 05:22:22;;;;;;;6.82;5.95;;;5.80;69.20;;;;;;5035791;28;20022;-57
2022/11/20 05:24:47;;;;;;;7.63;6.15;;;5.80;69.20;;;;;;5036052;28;20049;-57
2022/11/20 05:27:13;;;;;;;7.35;5.75;;;5.80;69.30;;;;;;5035353;28;20026;-56
2022/11/20 05:29:39;;;;;;;8.27;6.68;;;5.80;69.40;;;;;;5035713;28;20030;-56
2022/11/20 05:32:07;;;;;;;7.28;5.95;;;5.80;69.30;;;;;;5035180;28;20061;-56
2022/11/20 05:34:32;;;;;;;8.40;6.35;;;5.80;69.30;;;;;;5036024;28;20026;-56
2022/11/20 05:36:58;;;;;;;9.65;7.22;;;5.70;69.20;;;;;;5035116;28;20030;-57
2022/11/20 05:39:23;;;;;;;9.55;7.28;;;5.70;69.20;;;;;;5033577;28;20025;-55
2022/11/20 05:42:29;;;;;;;7.93;6.10;;;5.70;69.30;;;;;;5031511;28;20029;-57
2022/11/20 05:44:35;;;;;;;7.75;6.13;;;5.60;69.20;;;;;;5035142;28;20030;-57
2022/11/20 05:47:00;;;;;;;7.43;6.10;;;5.60;69.30;;;;;;5035428;28;20397;-57
2022/11/20 05:49:26;;;;;;;9.55;7.03;;;5.50;69.50;;;;;;5035754;28;20475;-56
2022/11/20 05:51:51;;;;;;;7.80;6.25;;;5.50;69.50;;;;;;5035544;28;20025;-57
2022/11/20 05:54:17;;;;;;;9.55;7.07;;;5.50;69.70;;;;;;5035412;28;20033;-57
2022/11/20 05:56:43;;;;;;;7.85;6.63;;;5.40;69.50;;;;;;5034827;28;20026;-56
2022/11/20 05:59:08;;;;;;;7.90;5.70;;;5.40;69.60;;;;;;5035216;28;20075;-55
2022/11/20 06:01:35;;;;;;;8.40;6.40;;;5.30;69.70;;;;;;5034688;28;20057;-56
2022/11/20 06:04:02;;;;;;;8.02;6.18;;;5.30;70.00;;;;;;5034639;28;20548;-56
2022/11/20 06:06:28;;;;;;;7.97;6.40;;;5.30;70.20;;;;;;5034291;28;20393;-56
2022/11/20 06:08:54;;;;;;;8.07;5.35;;;5.30;70.30;;;;;;5034417;28;20265;-56
2022/11/20 06:11:20;;;;;;;7.18;5.53;;;5.30;70.20;;;;;;5034605;28;20062;-57
2022/11/20 06:13:46;;;;;;;7.13;5.65;;;5.20;70.40;;;;;;5034585;28;20056;-57
2022/11/20 06:16:14;;;;;;;8.52;5.97;;;5.20;70.30;;;;;;5034669;28;20079;-56
2022/11/20 06:18:40;;;;;;;8.68;6.60;;;5.20;70.40;;;;;;5034840;28;20112;-56
2022/11/20 06:21:08;;;;;;;7.57;6.38;;;5.20;70.60;;;;;;5034561;28;20113;-57
2022/11/20 06:23:35;;;;;;;8.25;6.05;;;5.20;70.70;;;;;;5033912;28;20052;-56
2022/11/20 06:26:12;;;;;;;9.18;6.75;;;5.10;70.70;;;;;;5034469;28;20039;-57
2022/11/20 06:28:38;;;;;;;8.23;6.78;;;5.10;70.60;;;;;;5033426;28;20018;-56
2022/11/20 06:31:05;;;;;;;9.50;7.60;;;5.10;70.90;;;;;;5034190;28;20441;-57
2022/11/20 06:33:30;;;;;;;7.72;6.35;;;5.00;70.90;;;;;;5034611;28;20060;-57
2022/11/20 06:35:57;;;;;;;8.05;6.60;;;5.00;70.90;;;;;;5034780;28;20067;-57
2022/11/20 06:38:27;;;;;;;7.60;6.50;;;5.00;71.10;;;;;;5034667;28;20033;-56
2022/11/20 06:40:53;;;;;;;9.48;7.20;;;4.90;71.20;;;;;;5026335;28;20025;-56
2022/11/20 06:43:20;;;;;;;7.55;5.80;;;4.90;71.40;;;;;;5033502;28;20543;-56
2022/11/20 06:45:46;;;;;;;8.23;6.65;;;4.90;71.70;;;;;;5029326;28;20108;-57
2022/11/20 06:48:11;;;;;;;8.43;6.53;;;4.90;71.70;;;;;;5032194;28;21066;-57
2022/11/20 06:50:38;;;;;;;9.05;6.82;;;4.80;71.90;;;;;;5023053;28;20021;-57
2022/11/20 06:53:04;;;;;;;8.68;7.30;;;4.80;71.90;;;;;;5034228;28;20057;-57
2022/11/20 06:55:31;;;;;;;8.52;6.20;;;4.80;72.10;;;;;;5033796;28;20029;-57
2022/11/20 06:57:57;;;;;;;7.50;6.43;;;4.80;72.20;;;;;;5033630;28;20061;-57
2022/11/20 07:00:23;;;;;;;7.47;5.68;;;4.70;72.30;;;;;;5033722;28;20429;-57
2022/11/20 07:02:48;;;;;;;8.20;6.53;;;4.70;72.40;;;;;;5033774;28;20064;-56
2022/11/20 07:05:14;;;;;;;7.00;5.78;;;4.70;72.50;;;;;;5033683;28;20021;-57
2022/11/20 07:07:40;;;;;;;8.35;6.55;;;4.70;72.70;;;;;;5032810;28;20030;-57
2022/11/20 07:10:06;;;;;;;9.25;6.32;;;4.70;72.70;;;;;;5031919;28;20022;-57
2022/11/20 07:12:31;;;;;;;8.07;6.72;;;4.60;72.60;;;;;;5033085;28;20021;-56
2022/11/20 07:14:57;;;;;;;9.10;7.60;;;4.60;72.70;;;;;;5033878;28;20121;-56
2022/11/20 07:17:22;;;;;;;10.40;7.75;;;4.60;72.90;;;;;;5033512;28;20025;-55
2022/11/20 07:19:48;;;;;;;7.50;6.05;;;4.60;72.90;;;;;;5033548;28;20112;-57
2022/11/20 07:22:14;;;;;;;8.38;6.47;;;4.50;73.00;;;;;;5032449;28;20572;-56
2022/11/20 07:24:39;;;;;;;8.75;6.60;;;4.50;73.00;;;;;;5032384;28;20041;-57
2022/11/20 07:27:05;;;;;;;7.55;6.28;;;4.50;73.10;;;;;;5020064;28;20034;-56
2022/11/20 07:29:30;;;;;;;8.40;6.55;;;4.50;73.20;;;;;;5033388;28;20037;-57
2022/11/20 07:31:56;;;;;;;9.05;6.70;;;4.50;73.30;;;;;;5032045;28;20107;-57
2022/11/20 07:34:22;;;;;;;9.15;7.30;;;4.40;73.30;;;;;;5033454;28;20049;-55
2022/11/20 07:36:48;;;;;;;9.02;7.43;;;4.40;73.30;;;;;;5033063;28;20056;-56
2022/11/20 07:39:14;;;;;;;7.45;6.40;;;4.20;73.30;;;;;;5028477;28;20026;-55
2022/11/20 07:41:39;;;;;;;7.70;5.90;;;4.10;73.80;;;;;;5027610;28;20029;-56
2022/11/20 07:44:05;;;;;;;7.63;6.22;;;3.90;74.30;;;;;;5032928;28;20461;-55
2022/11/20 07:46:31;;;;;;;7.00;6.28;;;3.80;74.80;;;;;;5032331;28;20037;-56
2022/11/20 07:48:57;;;;;;;6.90;5.90;;;3.80;75.30;;;;;;5032652;28;20521;-56
2022/11/20 07:51:22;;;;;;;7.68;5.88;;;3.80;75.80;;;;;;5031355;28;20032;-55
2022/11/20 07:53:51;;;;;;;6.10;5.32;;;3.80;76.10;;;;;;5030675;28;20164;-56
2022/11/20 07:56:16;;;;;;;8.13;6.18;;;3.80;76.40;;;;;;5030725;28;20040;-57
2022/11/20 07:58:42;;;;;;;6.30;5.40;;;3.80;76.60;;;;;;5027664;28;20392;-57
2022/11/20 08:01:08;;;;;;;6.80;5.88;;;3.90;76.70;;;;;;5032301;28;20033;-57
2022/11/20 08:03:34;;;;;;;6.95;5.65;;;3.90;76.80;;;;;;5031712;28;20477;-56
2022/11/20 08:06:01;;;;;;;7.43;5.55;;;4.00;76.80;;;;;;5030118;28;20092;-57
2022/11/20 08:08:28;;;;;;;6.72;5.32;;;4.00;76.70;;;;;;5030774;28;20034;-57
2022/11/20 08:14:11;;;;;;;6.90;5.68;;;4.10;76.70;;;;;;5026496;28;20380;-56
2022/11/20 08:16:46;;;;;;;6.32;5.28;;;4.00;76.70;;;;;;5027784;28;20029;-55
2022/11/20 08:19:12;;;;;;;6.32;5.00;;;4.10;76.70;;;;;;5032641;28;20038;-57
2022/11/20 08:21:38;;;;;;;7.45;5.80;;;4.10;76.70;;;;;;5030983;28;20395;-56
2022/11/20 08:24:05;;;;;;;6.93;6.22;;;4.10;76.70;;;;;;5032126;28;20048;-57
2022/11/20 08:26:30;;;;;;;6.57;5.82;;;4.10;76.50;;;;;;5032861;28;20107;-56
2022/11/20 08:28:57;;;;;;;6.93;5.72;;;4.10;76.50;;;;;;5032033;28;20076;-57
2022/11/20 08:31:24;;;;;;;6.65;5.68;;;4.10;76.70;;;;;;5032348;28;20032;-56
2022/11/20 08:33:51;;;;;;;7.43;5.68;;;4.10;76.70;;;;;;5032007;28;20499;-57
2022/11/20 08:36:17;;;;;;;6.63;5.47;;;4.10;76.60;;;;;;5031741;28;20021;-57
2022/11/20 08:38:47;;;;;;;7.20;5.82;;;4.00;76.60;;;;;;5031153;28;20142;-56
2022/11/20 08:41:26;;;;;;;7.10;6.13;;;4.00;76.80;;;;;;5032231;28;20030;-57
2022/11/20 08:43:58;;;;;;;6.15;5.25;;;3.90;77.00;;;;;;5032364;28;20025;-56
2022/11/20 08:46:32;;;;;;;6.20;5.32;;;3.90;77.00;;;;;;5032143;28;20028;-56
2022/11/20 08:48:58;;;;;;;6.45;5.32;;;3.90;77.20;;;;;;5021937;28;20079;-56
2022/11/20 08:51:24;;;;;;;6.90;5.47;;;3.80;77.50;;;;;;5032265;28;20025;-56
2022/11/20 08:53:50;;;;;;;6.80;5.47;;;3.80;77.50;;;;;;5032218;28;20104;-56
2022/11/20 08:56:16;;;;;;;7.22;5.70;;;3.90;77.60;;;;;;5031944;28;20037;-55
2022/11/20 08:58:42;;;;;;;8.30;6.45;;;3.80;77.70;;;;;;5032329;28;20030;-56
2022/11/20 09:01:08;;;;;;;7.18;5.55;;;3.80;77.70;;;;;;5031555;28;20036;-55
2022/11/20 09:03:33;;;;;;;7.03;5.43;;;3.80;77.70;;;;;;5032442;28;20032;-57
2022/11/20 09:06:01;;;;;;;7.10;5.93;;;3.80;77.90;;;;;;5032318;28;20075;-56
2022/11/20 09:08:28;;;;;;;6.70;5.55;;;3.80;78.00;;;;;;5031607;28;20028;-55
2022/11/20 09:10:55;;;;;;;9.23;6.40;;;3.80;78.00;;;;;;5031953;28;20064;-57
2022/11/20 09:13:22;;;;;;;7.32;5.30;;;3.90;78.30;;;;;;5032181;28;20488;-57
2022/11/20 09:15:56;;;;;;;6.82;5.30;;;3.90;78.30;;;;;;5031346;28;20078;-56
2022/11/20 09:18:23;;;;;;;6.35;5.43;;;3.90;78.30;;;;;;5032509;28;20072;-56
2022/11/20 09:20:48;;;;;;;9.73;6.53;;;4.00;78.30;;;;;;5031880;28;20026;-57
2022/11/20 09:23:14;;;;;;;7.10;5.70;;;4.00;78.10;;;;;;5031631;28;20118;-57
2022/11/20 09:25:40;;;;;;;8.20;6.60;;;4.00;77.90;;;;;;5029754;28;20025;-57
2022/11/20 09:28:06;;;;;;;6.57;5.50;;;4.00;77.70;;;;;;5022119;28;20472;-56
2022/11/20 09:30:32;;;;;;;6.40;5.80;;;4.00;77.70;;;;;;5032751;28;20025;-57
2022/11/20 09:32:57;;;;;;;8.15;6.55;;;4.00;77.70;;;;;;5036161;28;20034;-56
2022/11/20 09:35:23;;;;;;;6.60;5.72;;;3.90;77.80;;;;;;5035548;28;20045;-56
2022/11/20 09:37:49;;;;;;;7.00;5.63;;;3.90;77.90;;;;;;5035609;28;20033;-57
2022/11/20 09:40:45;;;;;;;6.40;5.35;;;3.90;77.80;;;;;;5021597;28;20033;-57
2022/11/20 09:43:18;;;;;;;5.80;5.15;;;3.90;77.80;;;;;;5033577;28;20060;-56
2022/11/20 09:46:11;;;;;;;6.53;5.57;;;3.90;78.00;;;;;;5021939;28;20026;-55
2022/11/20 09:48:45;;;;;;;5.88;4.97;;;3.90;77.80;;;;;;5034422;28;20033;-56
2022/11/20 09:51:36;;;;;;;6.43;5.35;;;3.90;77.80;;;;;;5034035;28;20049;-57
2022/11/20 09:54:17;;;;;;;7.18;5.50;;;3.90;77.70;;;;;;5034764;28;20496;-56
2022/11/20 09:57:08;;;;;;;5.93;4.93;;;3.90;77.50;;;;;;5035436;28;20590;-56
2022/11/20 09:59:52;;;;;;;7.13;5.32;;;3.90;77.80;;;;;;5034902;28;20033;-57
2022/11/20 10:02:36;;;;;;;6.28;5.38;;;3.80;78.10;;;;;;5034532;28;20041;-56
2022/11/20 10:05:13;;;;;;;6.70;5.30;;;3.80;77.50;;;;;;5034684;28;20017;-56
2022/11/20 10:08:03;;;;;;;5.82;4.88;;;3.80;77.50;;;;;;5035422;28;20088;-56
2022/11/20 10:10:39;;;;;;;5.78;4.90;;;3.80;77.80;;;;;;5027402;28;20121;-56
2022/11/20 10:13:31;;;;;;;6.40;5.15;;;3.80;77.60;;;;;;5035008;28;20065;-57
2022/11/20 10:16:26;;;;;;;5.57;4.63;;;3.80;77.60;;;;;;5035090;28;20037;-56
2022/11/20 10:19:10;;;;;;;6.00;4.93;;;3.80;77.70;;;;;;5031365;28;20021;-57
2022/11/20 10:22:12;;;;;;;7.18;5.50;;;3.90;77.80;;;;;;5034868;28;20396;-56
2022/11/20 10:25:04;;;;;;;6.20;5.22;;;3.90;77.60;;;;;;5032653;28;20050;-56
2022/11/20 10:27:35;;;;;;;6.22;5.18;;;3.80;77.70;;;;;;5034680;28;20041;-56
2022/11/20 10:30:10;;;;;;;6.68;5.60;;;3.80;77.80;;;;;;5034611;28;20097;-56
2022/11/20 10:32:45;;;;;;;7.97;5.85;;;3.80;77.90;;;;;;5034347;28;20040;-56
2022/11/20 10:35:13;;;;;;;6.93;5.75;;;3.80;77.80;;;;;;5034765;28;20067;-56
2022/11/20 10:37:44;;;;;;;8.52;6.70;;;3.80;77.90;;;;;;5023390;28;20029;-56
2022/11/20 10:40:25;;;;;;;7.75;5.90;;;3.80;77.90;;;;;;5034822;28;20032;-57
2022/11/20 10:42:55;;;;;;;8.68;6.72;;;3.80;77.90;;;;;;5025493;28;20038;-56
2022/11/20 10:45:24;;;;;;;7.40;6.10;;;3.70;77.90;;;;;;5033040;28;20029;-56
2022/11/20 10:48:15;;;;;;;7.10;5.57;;;3.70;78.10;;;;;;5034910;28;20823;-56
2022/11/20 10:50:50;;;;;;;7.15;6.05;;;3.80;78.50;;;;;;5022888;28;20443;-55
2022/11/20 10:53:55;;;;;;;7.05;5.63;;;3.80;78.50;;;;;;5034244;28;20029;-57
2022/11/20 10:56:44;;;;;;;7.63;5.95;;;3.80;78.50;;;;;;5014748;28;20081;-56
2022/11/20 10:59:16;;;;;;;7.95;6.65;;;3.90;78.60;;;;;;5034478;28;20655;-56
2022/11/20 11:01:42;;;;;;;7.78;6.10;;;3.90;78.50;;;;;;5033803;28;20032;-55
2022/11/20 11:04:36;;;;;;;7.85;6.45;;;3.90;78.40;;;;;;5032454;28;20024;-56
2022/11/20 11:07:17;;;;;;;8.98;6.57;;;3.90;78.40;;;;;;5024312;28;20029;-56
2022/11/20 11:09:48;;;;;;;7.72;6.22;;;3.90;78.40;;;;;;5033533;28;20116;-56
2022/11/20 11:12:14;;;;;;;8.23;6.57;;;3.90;78.30;;;;;;5064181;28;20037;-56
2022/11/20 11:14:46;;;;;;;7.55;6.35;;;3.90;78.50;;;;;;5032513;28;20396;-56
2022/11/20 11:17:25;;;;;;;9.15;6.82;;;3.90;78.50;;;;;;5032200;28;20018;-56
2022/11/20 11:20:17;;;;;;;7.47;5.95;;;3.90;78.40;;;;;;5029014;28;20025;-54
2022/11/20 11:22:57;;;;;;;6.90;5.78;;;3.90;78.50;;;;;;5032123;28;20029;-56
2022/11/20 11:25:30;;;;;;;8.75;6.22;;;3.90;78.60;;;;;;5032076;28;20176;-55
2022/11/20 11:28:01;;;;;;;8.57;6.72;;;3.90;78.50;;;;;;5022188;28;20380;-56
2022/11/20 11:30:30;;;;;;;8.20;6.10;;;3.90;78.60;;;;;;5033928;28;20091;-56
2022/11/20 11:33:11;;;;;;;9.32;6.68;;;3.90;78.70;;;;;;5033086;28;20037;-56
2022/11/20 11:35:46;;;;;;;9.85;7.53;;;3.90;78.60;;;;;;5032633;28;20020;-56
2022/11/20 11:38:19;;;;;;;8.15;6.35;;;3.90;78.80;;;;;;5026296;28;20109;-56
2022/11/20 11:40:46;;;;;;;8.98;6.60;;;3.90;78.90;;;;;;5033952;28;20028;-56
2022/11/20 11:46:25;;;;;;;8.55;6.15;;;3.90;78.90;;;;;;5025882;28;20032;-56
2022/11/20 11:49:01;;;;;;;7.43;6.13;;;3.90;79.10;;;;;;5034125;28;20412;-56
2022/11/20 11:51:39;;;;;;;7.88;6.20;;;3.90;79.30;;;;;;5033227;28;20025;-56
2022/11/20 11:54:17;;;;;;;6.82;5.90;;;3.90;79.20;;;;;;5031961;28;20040;-57
2022/11/20 11:56:44;;;;;;;7.65;6.05;;;3.90;79.30;;;;;;5032742;28;20284;-56
2022/11/20 11:59:22;;;;;;;7.93;5.90;;;4.00;79.30;;;;;;5024207;28;20033;-57
2022/11/20 12:01:54;;;;;;;8.55;6.57;;;4.00;79.30;;;;;;5031302;28;20393;-56
2022/11/20 12:04:38;;;;;;;7.78;6.22;;;4.10;79.40;;;;;;5031655;28;20032;-56
2022/11/20 12:07:36;;;;;;;7.72;6.15;;;4.10;79.80;;;;;;5030417;28;20392;-55
2022/11/20 12:13:00;;;;;;;7.22;6.13;;;4.00;78.90;;;;;;5037315;28;20466;-56
2022/11/20 12:15:30;;;;;;;7.28;5.47;;;4.00;79.00;;;;;;5052040;28;20044;-56
2022/11/20 12:17:56;;;;;;;6.93;6.15;;;4.00;79.30;;;;;;5051258;28;20063;-57
2022/11/20 12:20:28;;;;;;;8.50;6.32;;;4.00;79.50;;;;;;5051823;28;20527;-57
2022/11/20 12:23:08;;;;;;;9.38;6.93;;;4.00;79.60;;;;;;5040102;28;20033;-57
2022/11/20 12:25:36;;;;;;;7.95;6.20;;;4.00;79.60;;;;;;5046146;28;20105;-57
2022/11/20 12:28:24;;;;;;;7.07;5.90;;;4.00;79.80;;;;;;5028301;28;20038;-57
2022/11/20 12:31:26;;;;;;;7.22;5.72;;;4.00;79.80;;;;;;5025810;28;20032;-57
2022/11/20 12:34:13;;;;;;;8.02;5.97;;;4.00;79.80;;;;;;5033718;28;20069;-57
2022/11/20 12:37:20;;;;;;;7.63;5.78;;;4.00;79.90;;;;;;5040390;28;20036;-57
2022/11/20 12:39:52;;;;;;;6.28;5.07;;;3.90;80.00;;;;;;5003085;28;20033;-56
2022/11/20 12:45:49;;;;;;;7.68;6.55;;;4.00;80.30;;;;;;5030462;28;20542;-56
2022/11/20 12:48:27;;;;;;;7.80;6.03;;;4.00;80.10;;;;;;5039063;28;20496;-57
2022/11/20 12:51:25;;;;;;;6.82;5.75;;;3.90;80.10;;;;;;5049113;28;20029;-57
2022/11/20 12:54:00;;;;;;;8.00;5.88;;;3.90;80.20;;;;;;5030520;28;20044;-56
2022/11/20 12:56:31;;;;;;;7.40;5.97;;;3.90;80.30;;;;;;5031477;28;20033;-57
2022/11/20 12:58:59;;;;;;;7.50;6.40;;;3.90;80.40;;;;;;5051535;28;20025;-56
2022/11/20 13:01:40;;;;;;;6.90;5.72;;;3.90;80.30;;;;;;5051078;28;20361;-55
2022/11/20 13:04:24;;;;;;;7.13;6.07;;;3.90;80.40;;;;;;5035941;28;20490;-57
2022/11/20 13:06:50;;;;;;;7.00;5.50;;;3.90;80.40;;;;;;5038007;28;20029;-55
2022/11/20 13:09:21;;;;;;;7.82;6.35;;;3.90;80.40;;;;;;5039195;28;20498;-57
2022/11/20 13:12:05;;;;;;;7.45;6.25;;;3.90;80.40;;;;;;5042941;28;20522;-57
2022/11/20 13:15:16;;;;;;;6.78;5.35;;;3.90;80.70;;;;;;5042423;28;20014;-58
2022/11/20 13:17:55;;;;;;;6.05;4.95;;;3.90;80.60;;;;;;5039954;28;20060;-56
2022/11/20 13:20:21;;;;;;;8.00;6.47;;;3.90;80.80;;;;;;5038375;28;20020;-56
2022/11/20 13:22:54;;;;;;;7.80;5.85;;;3.90;80.80;;;;;;5019074;28;20116;-56
2022/11/20 13:25:33;;;;;;;6.13;4.80;;;3.90;80.80;;;;;;5013629;28;20048;-57
2022/11/20 13:28:24;;;;;;;6.57;4.95;;;3.90;80.70;;;;;;5019599;28;20527;-57
2022/11/20 13:30:55;;;;;;;6.40;5.13;;;3.90;80.60;;;;;;5018500;28;20049;-56